Time,TemperatureF,DewpointF,PressureIn,WindDirection,WindDirectionDegrees,WindSpeedMPH,WindSpeedGustMPH,Humidity,HourlyPrecipIn,Conditions,Clouds,dailyrainin,SoftwareType,DateUTC
2013-11-09 00:00:00,26.9,23.8,30.36,SSW,208,0.0,0.0,88,0.00,,,0.00,WeatherDisplay:10.37,2013-11-09 05:00:00,
2013-11-09 00:01:00,26.9,23.8,30.35,SSW,208,0.0,0.0,88,0.00,,,0.00,WeatherDisplay:10.37,2013-11-09 05:01:00,
2013-11-09 00:02:00,26.9,23.8,30.35,SSW,208,0.0,0.0,88,0.00,,,0.00,WeatherDisplay:10.37,2013-11-09 05:02:00,
2013-11-09 00:07:00,26.9,23.8,30.36,SSW,208,0.0,0.0,88,0.00,,,0.00,WeatherDisplay:10.37,2013-11-09 05:07:00,
2013-11-09 00:12:00,26.7,23.6,30.36,SSW,208,0.0,0.0,88,0.00,,,0.00,WeatherDisplay:10.37,2013-11-09 05:12:00,
2013-11-09 00:17:00,26.5,23.4,30.36,SSW,208,0.0,0.0,88,0.00,,,0.00,WeatherDisplay:10.37,2013-11-09 05:17:00,
2013-11-09 00:22:00,26.1,23.0,30.36,SSW,208,0.0,0.0,88,0.00,,,0.00,WeatherDisplay:10.37,2013-11-09 05:22:00,
2013-11-09 00:27:00,25.8,22.7,30.36,SSW,208,0.0,0.0,88,0.00,,,0.00,WeatherDisplay:10.37,2013-11-09 05:27:00,
2013-11-09 00:32:00,25.7,22.9,30.36,SSW,208,0.0,0.0,89,0.00,,,0.00,WeatherDisplay:10.37,2013-11-09 05:32:00,
2013-11-09 00:37:00,26.0,23.5,30.36,SSW,208,1.2,0.0,90,0.00,,,0.00,WeatherDisplay:10.37,2013-11-09 05:37:00,
2013-11-09 00:42:00,26.1,23.3,30.36,SSW,208,1.2,1.2,89,0.00,,,0.00,WeatherDisplay:10.37,2013-11-09 05:42:00,
2013-11-09 00:47:00,26.2,23.4,30.35,SSW,208,1.2,1.2,89,0.00,,,0.00,WeatherDisplay:10.37,2013-11-09 05:47:00,
2013-11-09 00:52:00,26.5,23.7,30.35,SSW,208,1.2,1.2,89,0.00,,,0.00,WeatherDisplay:10.37,2013-11-09 05:52:00,
2013-11-09 00:57:00,26.9,23.8,30.35,SSW,208,0.0,0.0,88,0.00,,,0.00,WeatherDisplay:10.37,2013-11-09 05:57:00,
2013-11-09 01:02:00,27.1,23.7,30.35,SSW,208,0.0,0.0,87,0.00,,,0.00,WeatherDisplay:10.37,2013-11-09 06:02:00,
2013-11-09 01:07:00,27.3,23.9,30.35,SSW,208,0.0,0.0,87,0.00,,,0.00,WeatherDisplay:10.37,2013-11-09 06:07:00,
2013-11-09 01:12:00,27.3,23.7,30.35,SSW,208,1.2,1.2,86,0.00,,,0.00,WeatherDisplay:10.37,2013-11-09 06:12:00,
2013-11-09 01:17:00,27.1,23.5,30.35,SSW,208,0.0,0.0,86,0.00,,,0.00,WeatherDisplay:10.37,2013-11-09 06:17:00,
2013-11-09 01:22:00,26.9,23.5,30.35,SSW,208,0.0,0.0,87,0.00,,,0.00,WeatherDisplay:10.37,2013-11-09 06:22:00,
2013-11-09 01:27:00,26.9,23.3,30.35,SSW,208,0.0,0.0,86,0.00,,,0.00,WeatherDisplay:10.37,2013-11-09 06:27:00,
2013-11-09 01:32:00,26.9,23.3,30.35,SSW,208,0.0,0.0,86,0.00,,,0.00,WeatherDisplay:10.37,2013-11-09 06:32:00,
2013-11-09 01:37:00,26.9,23.3,30.35,SSW,208,0.0,0.0,86,0.00,,,0.00,WeatherDisplay:10.37,2013-11-09 06:37:00,
2013-11-09 01:42:00,27.2,23.6,30.35,SSW,208,1.2,1.2,86,0.00,,,0.00,WeatherDisplay:10.37,2013-11-09 06:42:00,
2013-11-09 01:47:00,27.7,23.8,30.35,SSE,147,1.2,1.2,85,0.00,,,0.00,WeatherDisplay:10.37,2013-11-09 06:47:00,
2013-11-09 01:52:00,28.0,23.8,30.35,SE,129,3.5,3.5,84,0.00,,,0.00,WeatherDisplay:10.37,2013-11-09 06:52:00,
2013-11-09 01:57:00,28.1,23.6,30.34,SE,134,1.2,1.2,83,0.00,,,0.00,WeatherDisplay:10.37,2013-11-09 06:57:00,
2013-11-09 02:02:00,28.0,23.5,30.35,SE,134,0.0,0.0,83,0.00,,,0.00,WeatherDisplay:10.37,2013-11-09 07:02:00,
2013-11-09 02:07:00,27.9,23.4,30.35,SSE,154,1.2,1.2,83,0.00,,,0.00,WeatherDisplay:10.37,2013-11-09 07:07:00,
2013-11-09 02:12:00,28.0,23.5,30.35,SE,136,1.2,1.2,83,0.00,,,0.00,WeatherDisplay:10.37,2013-11-09 07:12:00,
2013-11-09 02:17:00,28.0,23.5,30.35,SE,137,0.0,0.0,83,0.00,,,0.00,WeatherDisplay:10.37,2013-11-09 07:17:00,
2013-11-09 02:22:00,27.7,23.2,30.35,SE,136,0.0,0.0,83,0.00,,,0.00,WeatherDisplay:10.37,2013-11-09 07:22:00,
2013-11-09 02:27:00,27.6,23.4,30.35,SE,137,0.0,0.0,84,0.00,,,0.00,WeatherDisplay:10.37,2013-11-09 07:27:00,
2013-11-09 02:32:00,27.4,23.2,30.35,SE,136,0.0,0.0,84,0.00,,,0.00,WeatherDisplay:10.37,2013-11-09 07:32:00,
2013-11-09 02:37:00,27.3,23.1,30.35,SE,146,1.0,1.0,84,0.00,,,0.00,WeatherDisplay:10.37,2013-11-09 07:37:00,
2013-11-09 02:42:00,27.4,23.5,30.35,SE,144,1.2,1.2,85,0.00,,,0.00,WeatherDisplay:10.37,2013-11-09 07:42:00,
2013-11-09 02:47:00,27.4,23.2,30.35,SE,144,0.0,0.0,84,0.00,,,0.00,WeatherDisplay:10.37,2013-11-09 07:47:00,
2013-11-09 02:52:00,27.4,23.2,30.35,SE,144,0.0,0.0,84,0.00,,,0.00,WeatherDisplay:10.37,2013-11-09 07:52:00,
2013-11-09 02:57:00,27.1,22.9,30.35,SE,144,0.0,0.0,84,0.00,,,0.00,WeatherDisplay:10.37,2013-11-09 07:57:00,
2013-11-09 03:02:00,26.8,22.9,30.35,SE,144,0.0,0.0,85,0.00,,,0.00,WeatherDisplay:10.37,2013-11-09 08:02:00,
2013-11-09 03:07:00,26.4,22.5,30.35,SE,144,0.0,0.0,85,0.00,,,0.00,WeatherDisplay:10.37,2013-11-09 08:07:00,
2013-11-09 03:12:00,26.1,22.5,30.35,SE,144,0.0,0.0,86,0.00,,,0.00,WeatherDisplay:10.37,2013-11-09 08:12:00,
2013-11-09 03:17:00,25.9,22.3,30.35,SE,144,0.0,0.0,86,0.00,,,0.00,WeatherDisplay:10.37,2013-11-09 08:17:00,
2013-11-09 03:22:00,25.8,22.5,30.35,SE,144,0.0,0.0,87,0.00,,,0.00,WeatherDisplay:10.37,2013-11-09 08:22:00,
2013-11-09 03:27:00,25.7,22.4,30.35,SE,144,0.0,0.0,87,0.00,,,0.00,WeatherDisplay:10.37,2013-11-09 08:27:00,
2013-11-09 03:32:00,25.7,22.6,30.35,SE,144,0.0,0.0,88,0.00,,,0.00,WeatherDisplay:10.37,2013-11-09 08:32:00,
2013-11-09 03:37:00,25.7,22.4,30.35,SE,144,0.0,0.0,87,0.00,,,0.00,WeatherDisplay:10.37,2013-11-09 08:37:00,
2013-11-09 03:42:00,25.5,22.4,30.35,SE,144,0.0,0.0,88,0.00,,,0.00,WeatherDisplay:10.37,2013-11-09 08:42:00,
2013-11-09 03:47:00,25.4,22.3,30.35,SE,144,0.0,0.0,88,0.00,,,0.00,WeatherDisplay:10.37,2013-11-09 08:47:00,
2013-11-09 03:52:00,25.4,22.3,30.35,SE,144,0.0,0.0,88,0.00,,,0.00,WeatherDisplay:10.37,2013-11-09 08:52:00,
2013-11-09 03:57:00,25.4,22.3,30.36,SE,144,0.0,0.0,88,0.00,,,0.00,WeatherDisplay:10.37,2013-11-09 08:57:00,
2013-11-09 04:02:00,25.3,22.2,30.36,SE,144,0.0,0.0,88,0.00,,,0.00,WeatherDisplay:10.37,2013-11-09 09:02:00,
2013-11-09 04:07:00,25.4,22.3,30.36,SE,144,0.0,0.0,88,0.00,,,0.00,WeatherDisplay:10.37,2013-11-09 09:07:00,
2013-11-09 04:12:00,25.2,22.1,30.36,SE,144,0.0,0.0,88,0.00,,,0.00,WeatherDisplay:10.37,2013-11-09 09:12:00,
2013-11-09 04:17:00,25.0,21.9,30.36,SE,144,0.0,0.0,88,0.00,,,0.00,WeatherDisplay:10.37,2013-11-09 09:17:00,
2013-11-09 04:22:00,25.0,21.9,30.36,SE,144,0.0,0.0,88,0.00,,,0.00,WeatherDisplay:10.37,2013-11-09 09:22:00,
2013-11-09 04:27:00,25.0,22.2,30.36,SE,144,0.0,0.0,89,0.00,,,0.00,WeatherDisplay:10.37,2013-11-09 09:27:00,
2013-11-09 04:32:00,24.9,21.8,30.35,SE,144,0.0,0.0,88,0.00,,,0.00,WeatherDisplay:10.37,2013-11-09 09:32:00,
2013-11-09 04:37:00,24.7,21.7,30.36,SE,144,0.0,0.0,88,0.00,,,0.00,WeatherDisplay:10.37,2013-11-09 09:37:00,
2013-11-09 04:43:00,24.7,21.7,30.36,SE,144,0.0,0.0,88,0.00,,,0.00,WeatherDisplay:10.37,2013-11-09 09:43:00,
2013-11-09 04:48:00,24.5,21.5,30.36,SE,144,0.0,0.0,88,0.00,,,0.00,WeatherDisplay:10.37,2013-11-09 09:48:00,
2013-11-09 04:53:00,24.2,21.2,30.36,SE,144,0.0,0.0,88,0.00,,,0.00,WeatherDisplay:10.37,2013-11-09 09:53:00,
2013-11-09 04:58:00,23.9,20.9,30.36,SE,144,0.0,0.0,88,0.00,,,0.00,WeatherDisplay:10.37,2013-11-09 09:58:00,
2013-11-09 05:03:00,23.7,20.9,30.36,SE,144,0.0,0.0,89,0.00,,,0.00,WeatherDisplay:10.37,2013-11-09 10:03:00,
2013-11-09 05:08:00,23.5,20.7,30.36,SE,144,0.0,0.0,89,0.00,,,0.00,WeatherDisplay:10.37,2013-11-09 10:08:00,
2013-11-09 05:13:00,23.3,20.5,30.36,SE,144,0.0,0.0,89,0.00,,,0.00,WeatherDisplay:10.37,2013-11-09 10:13:00,
2013-11-09 05:18:00,23.5,21.0,30.36,SE,144,0.0,0.0,90,0.00,,,0.00,WeatherDisplay:10.37,2013-11-09 10:18:00,
2013-11-09 05:23:00,23.8,21.6,30.36,SE,144,1.2,0.0,91,0.00,,,0.00,WeatherDisplay:10.37,2013-11-09 10:23:00,
2013-11-09 05:28:00,24.0,21.8,30.36,SE,144,0.0,0.0,91,0.00,,,0.00,WeatherDisplay:10.37,2013-11-09 10:28:00,
2013-11-09 05:33:00,24.0,21.5,30.36,SE,144,0.0,0.0,90,0.00,,,0.00,WeatherDisplay:10.37,2013-11-09 10:33:00,
2013-11-09 05:38:00,24.1,21.6,30.35,SE,144,0.0,0.0,90,0.00,,,0.00,WeatherDisplay:10.37,2013-11-09 10:38:00,
2013-11-09 05:43:00,24.1,21.6,30.35,SE,144,0.0,0.0,90,0.00,,,0.00,WeatherDisplay:10.37,2013-11-09 10:43:00,
2013-11-09 05:48:00,23.9,21.4,30.35,SE,144,0.0,0.0,90,0.00,,,0.00,WeatherDisplay:10.37,2013-11-09 10:48:00,
2013-11-09 05:53:00,23.6,21.1,30.35,SE,144,0.0,0.0,90,0.00,,,0.00,WeatherDisplay:10.37,2013-11-09 10:53:00,
2013-11-09 05:58:00,23.4,20.9,30.35,SE,144,0.0,0.0,90,0.00,,,0.00,WeatherDisplay:10.37,2013-11-09 10:58:00,
2013-11-09 06:03:00,23.2,20.7,30.36,SE,144,0.0,0.0,90,0.00,,,0.00,WeatherDisplay:10.37,2013-11-09 11:03:00,
2013-11-09 06:08:00,23.2,21.0,30.36,SE,144,0.0,0.0,91,0.00,,,0.00,WeatherDisplay:10.37,2013-11-09 11:08:00,
2013-11-09 06:13:00,23.2,21.0,30.36,SE,144,0.0,0.0,91,0.00,,,0.00,WeatherDisplay:10.37,2013-11-09 11:13:00,
2013-11-09 06:18:00,23.4,21.2,30.36,SE,144,0.0,0.0,91,0.00,,,0.00,WeatherDisplay:10.37,2013-11-09 11:18:00,
2013-11-09 06:23:00,23.6,21.4,30.36,SE,144,0.0,0.0,91,0.00,,,0.00,WeatherDisplay:10.37,2013-11-09 11:23:00,
2013-11-09 06:28:00,23.7,21.5,30.36,SE,144,0.0,0.0,91,0.00,,,0.00,WeatherDisplay:10.37,2013-11-09 11:28:00,
2013-11-09 06:33:00,23.8,21.6,30.36,SE,144,1.2,0.0,91,0.00,CLR,,0.00,WeatherDisplay:10.37,2013-11-09 11:33:00,
2013-11-09 06:38:00,24.0,21.8,30.37,SE,144,0.0,0.0,91,0.00,CLR,,0.00,WeatherDisplay:10.37,2013-11-09 11:38:00,
2013-11-09 06:43:00,24.1,21.6,30.36,SE,144,0.0,0.0,90,0.00,CLR,,0.00,WeatherDisplay:10.37,2013-11-09 11:43:00,
2013-11-09 06:48:00,24.1,21.6,30.36,SE,144,2.3,2.3,90,0.00,CLR,,0.00,WeatherDisplay:10.37,2013-11-09 11:48:00,
2013-11-09 06:53:00,24.0,21.5,30.36,SE,144,0.0,0.0,90,0.00,CLR,,0.00,WeatherDisplay:10.37,2013-11-09 11:53:00,
2013-11-09 06:58:00,24.0,21.5,30.36,SE,144,0.0,0.0,90,0.00,CLR,,0.00,WeatherDisplay:10.37,2013-11-09 11:58:00,
2013-11-09 07:03:00,23.9,21.1,30.36,SE,144,0.0,0.0,89,0.00,CLR,,0.00,WeatherDisplay:10.37,2013-11-09 12:03:00,
2013-11-09 07:08:00,23.8,21.0,30.36,SE,144,0.0,0.0,89,0.00,CLR,,0.00,WeatherDisplay:10.37,2013-11-09 12:08:00,
2013-11-09 07:13:00,23.6,20.8,30.36,SE,144,0.0,0.0,89,0.00,CLR,,0.00,WeatherDisplay:10.37,2013-11-09 12:13:00,
2013-11-09 07:18:00,23.4,20.6,30.36,SE,144,0.0,0.0,89,0.00,CLR,,0.00,WeatherDisplay:10.37,2013-11-09 12:18:00,
2013-11-09 07:23:00,23.3,20.5,30.37,SE,144,0.0,0.0,89,0.00,CLR,,0.00,WeatherDisplay:10.37,2013-11-09 12:23:00,
2013-11-09 07:28:00,23.4,20.9,30.37,SE,144,0.0,0.0,90,0.00,CLR,,0.00,WeatherDisplay:10.37,2013-11-09 12:28:00,
2013-11-09 07:33:00,23.7,21.2,30.37,SE,144,0.0,0.0,90,0.00,CLR,,0.00,WeatherDisplay:10.37,2013-11-09 12:33:00,
2013-11-09 07:38:00,24.0,21.5,30.37,SE,144,0.0,0.0,90,0.00,CLR,,0.00,WeatherDisplay:10.37,2013-11-09 12:38:00,
2013-11-09 07:43:00,24.3,21.8,30.37,SE,144,0.0,0.0,90,0.00,CLR,,0.00,WeatherDisplay:10.37,2013-11-09 12:43:00,
2013-11-09 07:48:00,24.5,22.0,30.37,SE,144,0.0,0.0,90,0.00,CLR,,0.00,WeatherDisplay:10.37,2013-11-09 12:48:00,
2013-11-09 07:53:00,25.0,22.5,30.37,ENE,57,0.0,0.0,90,0.00,CLR,,0.00,WeatherDisplay:10.37,2013-11-09 12:53:00,
2013-11-09 07:59:00,25.5,23.0,30.38,ENE,58,0.0,0.0,90,0.00,CLR,,0.00,WeatherDisplay:10.37,2013-11-09 12:59:00,
2013-11-09 08:04:00,26.1,23.6,30.37,ENE,58,1.2,1.2,90,0.00,CLR,,0.00,WeatherDisplay:10.37,2013-11-09 13:04:00,
2013-11-09 08:09:00,26.8,24.0,30.38,ENE,58,0.0,0.0,89,0.00,CLR,,0.00,WeatherDisplay:10.37,2013-11-09 13:09:00,
2013-11-09 08:14:00,27.4,24.3,30.38,ENE,58,1.2,0.0,88,0.00,CLR,,0.00,WeatherDisplay:10.37,2013-11-09 13:14:00,
2013-11-09 08:19:00,27.9,24.5,30.38,ENE,58,0.0,0.0,87,0.00,CLR,,0.00,WeatherDisplay:10.37,2013-11-09 13:19:00,
2013-11-09 08:24:00,28.5,24.8,30.38,ENE,58,1.2,1.2,86,0.00,CLR,,0.00,WeatherDisplay:10.37,2013-11-09 13:24:00,
2013-11-09 08:29:00,29.0,24.8,30.38,ENE,58,0.0,0.0,84,0.00,CLR,,0.00,WeatherDisplay:10.37,2013-11-09 13:29:00,
2013-11-09 08:34:00,29.6,25.1,30.38,East,90,1.2,1.2,83,0.00,CLR,,0.00,WeatherDisplay:10.37,2013-11-09 13:34:00,
2013-11-09 08:39:00,30.1,25.6,30.38,East,91,0.0,0.0,83,0.00,CLR,,0.00,WeatherDisplay:10.37,2013-11-09 13:39:00,
2013-11-09 08:44:00,30.5,26.0,30.38,ESE,112,1.2,1.2,83,0.00,CLR,,0.00,WeatherDisplay:10.37,2013-11-09 13:44:00,
2013-11-09 08:49:00,31.0,26.4,30.38,ESE,109,1.2,1.2,83,0.00,CLR,,0.00,WeatherDisplay:10.37,2013-11-09 13:49:00,
2013-11-09 08:54:00,31.3,26.1,30.38,ENE,70,2.3,2.3,81,0.00,CLR,,0.00,WeatherDisplay:10.37,2013-11-09 13:54:00,
2013-11-09 08:59:00,31.8,26.3,30.38,SE,130,2.3,2.3,80,0.00,CLR,,0.00,WeatherDisplay:10.37,2013-11-09 13:59:00,
2013-11-09 09:04:00,32.3,26.5,30.38,East,100,1.2,1.2,79,0.00,CLR,,0.00,WeatherDisplay:10.37,2013-11-09 14:04:00,
2013-11-09 09:09:00,32.9,27.1,30.38,East,80,2.3,2.3,79,0.00,CLR,,0.00,WeatherDisplay:10.37,2013-11-09 14:09:00,
2013-11-09 09:14:00,33.3,27.2,30.38,East,84,3.5,3.5,78,0.00,CLR,,0.00,WeatherDisplay:10.37,2013-11-09 14:14:00,
2013-11-09 09:19:00,33.7,27.6,30.38,East,82,2.3,2.3,78,0.00,CLR,,0.00,WeatherDisplay:10.37,2013-11-09 14:19:00,
2013-11-09 09:24:00,34.3,27.5,30.38,East,80,4.6,4.6,76,0.00,CLR,,0.00,WeatherDisplay:10.37,2013-11-09 14:24:00,
2013-11-09 09:29:00,34.9,27.8,30.38,East,80,3.5,3.5,75,0.00,CLR,,0.00,WeatherDisplay:10.37,2013-11-09 14:29:00,
2013-11-09 09:34:00,35.5,27.7,30.38,ENE,78,5.0,5.0,73,0.00,CLR,,0.00,WeatherDisplay:10.37,2013-11-09 14:34:00,
2013-11-09 09:39:00,36.1,27.9,30.38,East,82,5.0,5.0,72,0.00,CLR,,0.00,WeatherDisplay:10.37,2013-11-09 14:39:00,
2013-11-09 09:44:00,36.8,28.6,30.38,East,81,3.5,3.5,72,0.00,CLR,,0.00,WeatherDisplay:10.37,2013-11-09 14:44:00,
2013-11-09 09:49:00,37.5,28.9,30.38,East,98,3.5,3.5,71,0.00,CLR,,0.00,WeatherDisplay:10.37,2013-11-09 14:49:00,
2013-11-09 09:54:00,38.6,29.3,30.37,ENE,67,3.5,3.5,69,0.00,CLR,,0.00,WeatherDisplay:10.37,2013-11-09 14:54:00,
2013-11-09 09:59:00,39.4,29.3,30.37,NE,54,3.5,3.5,67,0.00,CLR,,0.00,WeatherDisplay:10.37,2013-11-09 14:59:00,
2013-11-09 10:04:00,40.2,29.7,30.37,East,80,3.5,3.5,66,0.00,CLR,,0.00,WeatherDisplay:10.37,2013-11-09 15:04:00,
2013-11-09 10:09:00,40.9,29.7,30.37,ENE,78,3.5,3.5,64,0.00,CLR,,0.00,WeatherDisplay:10.37,2013-11-09 15:09:00,
2013-11-09 10:14:00,41.5,29.4,30.37,ENE,77,3.5,3.5,62,0.00,CLR,,0.00,WeatherDisplay:10.37,2013-11-09 15:14:00,
2013-11-09 10:19:00,42.1,29.6,30.37,NE,56,3.5,3.5,61,0.00,CLR,,0.00,WeatherDisplay:10.37,2013-11-09 15:19:00,
2013-11-09 10:24:00,42.7,29.4,30.37,ENE,74,2.3,2.3,59,0.00,CLR,,0.00,WeatherDisplay:10.37,2013-11-09 15:24:00,
2013-11-09 10:29:00,43.2,30.6,30.36,ENE,77,1.2,0.0,61,0.00,CLR,,0.00,WeatherDisplay:10.37,2013-11-09 15:29:00,
2013-11-09 10:34:00,44.2,29.9,30.36,ENE,77,1.0,0.0,57,0.00,CLR,,0.00,WeatherDisplay:10.37,2013-11-09 15:34:00,
2013-11-09 10:39:00,44.9,29.7,30.36,ENE,78,1.2,1.2,55,0.00,CLR,,0.00,WeatherDisplay:10.37,2013-11-09 15:39:00,
2013-11-09 10:44:00,45.3,29.6,30.36,East,84,2.3,0.0,54,0.00,CLR,,0.00,WeatherDisplay:10.37,2013-11-09 15:44:00,
2013-11-09 10:49:00,46.6,29.9,30.35,East,84,0.0,0.0,52,0.00,CLR,,0.00,WeatherDisplay:10.37,2013-11-09 15:49:00,
2013-11-09 10:54:00,48.2,31.4,30.36,East,84,1.2,1.2,52,0.00,CLR,,0.00,WeatherDisplay:10.37,2013-11-09 15:54:00,
2013-11-09 10:59:00,49.4,31.0,30.36,NW,320,3.0,3.0,49,0.00,CLR,,0.00,WeatherDisplay:10.37,2013-11-09 15:59:00,
2013-11-09 11:04:00,49.3,32.9,30.35,WNW,302,1.2,1.2,53,0.00,CLR,,0.00,WeatherDisplay:10.37,2013-11-09 16:04:00,
2013-11-09 11:09:00,49.4,30.5,30.35,WSW,257,2.3,2.3,48,0.00,CLR,,0.00,WeatherDisplay:10.37,2013-11-09 16:09:00,
2013-11-09 11:14:00,50.2,31.2,30.35,WNW,302,2.3,2.3,48,0.00,CLR,,0.00,WeatherDisplay:10.37,2013-11-09 16:14:00,
2013-11-09 11:19:00,50.7,31.2,30.35,WNW,298,1.2,1.2,47,0.00,CLR,,0.00,WeatherDisplay:10.37,2013-11-09 16:19:00,
2013-11-09 11:24:00,50.5,30.5,30.35,NW,314,3.5,3.5,46,0.00,CLR,,0.00,WeatherDisplay:10.37,2013-11-09 16:24:00,
2013-11-09 11:29:00,50.7,31.7,30.35,NW,312,0.0,0.0,48,0.00,CLR,,0.00,WeatherDisplay:10.37,2013-11-09 16:29:00,
2013-11-09 11:34:00,51.6,31.5,30.34,WNW,296,3.5,3.5,46,0.00,CLR,,0.00,WeatherDisplay:10.37,2013-11-09 16:34:00,
2013-11-09 11:39:00,52.2,32.6,30.34,West,275,1.2,1.2,47,0.00,CLR,,0.00,WeatherDisplay:10.37,2013-11-09 16:39:00,
2013-11-09 11:44:00,52.6,28.9,30.34,WSW,258,4.6,4.6,40,0.00,CLR,,0.00,WeatherDisplay:10.37,2013-11-09 16:44:00,
2013-11-09 11:49:00,52.6,29.5,30.33,West,280,5.8,5.8,41,0.00,CLR,,0.00,WeatherDisplay:10.37,2013-11-09 16:49:00,
2013-11-09 11:54:00,52.4,28.8,30.33,WNW,288,4.6,4.8,40,0.00,CLR,,0.00,WeatherDisplay:10.37,2013-11-09 16:54:00,
2013-11-09 11:59:00,52.4,29.4,30.33,West,269,8.1,8.1,41,0.00,CLR,,0.00,WeatherDisplay:10.37,2013-11-09 16:59:00,
2013-11-09 12:04:00,52.5,28.2,30.33,WSW,246,6.9,6.9,39,0.00,CLR,,0.00,WeatherDisplay:10.37,2013-11-09 17:04:00,
2013-11-09 12:09:00,52.2,28.6,30.33,SW,233,8.1,8.1,40,0.00,CLR,,0.00,WeatherDisplay:10.37,2013-11-09 17:09:00,
2013-11-09 12:14:00,52.5,27.6,30.33,WSW,238,9.2,9.2,38,0.00,CLR,,0.00,WeatherDisplay:10.37,2013-11-09 17:14:00,
2013-11-09 12:19:00,52.5,28.2,30.33,WNW,298,11.5,11.5,39,0.00,CLR,,0.00,WeatherDisplay:10.37,2013-11-09 17:19:00,
2013-11-09 12:24:00,52.4,28.8,30.32,WSW,257,4.0,4.0,40,0.00,CLR,,0.00,WeatherDisplay:10.37,2013-11-09 17:24:00,
2013-11-09 12:29:00,52.5,27.6,30.32,SSW,211,8.1,8.1,38,0.00,CLR,,0.00,WeatherDisplay:10.37,2013-11-09 17:29:00,
2013-11-09 12:34:00,52.4,26.9,30.32,SW,236,13.8,13.8,37,0.00,CLR,,0.00,WeatherDisplay:10.37,2013-11-09 17:34:00,
2013-11-09 12:39:00,52.5,27.6,30.32,SW,236,9.2,9.2,38,0.00,CLR,,0.00,WeatherDisplay:10.37,2013-11-09 17:39:00,
2013-11-09 12:44:00,52.5,27.6,30.32,WSW,241,12.7,12.7,38,0.00,CLR,,0.00,WeatherDisplay:10.37,2013-11-09 17:44:00,
2013-11-09 12:49:00,52.5,27.6,30.31,West,267,9.2,9.2,38,0.00,CLR,,0.00,WeatherDisplay:10.37,2013-11-09 17:49:00,
2013-11-09 12:54:00,52.3,27.4,30.31,WSW,257,11.5,11.5,38,0.00,CLR,,0.00,WeatherDisplay:10.37,2013-11-09 17:54:00,
2013-11-09 12:59:00,52.0,27.8,30.32,WSW,239,11.5,11.5,39,0.00,CLR,,0.00,WeatherDisplay:10.37,2013-11-09 17:59:00,
2013-11-09 13:04:00,52.1,27.2,30.31,SSW,212,9.2,9.2,38,0.00,CLR,,0.00,WeatherDisplay:10.37,2013-11-09 18:04:00,
2013-11-09 13:09:00,52.0,27.8,30.31,WSW,246,9.2,9.2,39,0.00,CLR,,0.00,WeatherDisplay:10.37,2013-11-09 18:09:00,
2013-11-09 13:14:00,51.8,27.0,30.31,SW,232,11.5,11.5,38,0.00,CLR,,0.00,WeatherDisplay:10.37,2013-11-09 18:14:00,
2013-11-09 13:19:00,51.9,28.3,30.30,WSW,238,8.1,8.1,40,0.00,CLR,,0.00,WeatherDisplay:10.37,2013-11-09 18:19:00,
2013-11-09 13:24:00,52.1,27.2,30.31,WSW,246,9.2,9.2,38,0.00,CLR,,0.00,WeatherDisplay:10.37,2013-11-09 18:24:00,
2013-11-09 13:30:00,52.2,27.3,30.31,WSW,239,9.2,9.2,38,0.00,CLR,,0.00,WeatherDisplay:10.37,2013-11-09 18:30:00,
2013-11-09 13:35:00,52.4,27.5,30.30,West,271,11.5,11.5,38,0.00,CLR,,0.00,WeatherDisplay:10.37,2013-11-09 18:35:00,
2013-11-09 13:40:00,52.5,27.6,30.30,SW,231,9.2,9.2,38,0.00,CLR,,0.00,WeatherDisplay:10.37,2013-11-09 18:40:00,
2013-11-09 13:45:00,52.8,27.9,30.30,WSW,250,6.0,9.0,38,0.00,CLR,,0.00,WeatherDisplay:10.37,2013-11-09 18:45:00,
2013-11-09 13:50:00,53.2,27.6,30.29,WNW,296,11.5,11.5,37,0.00,CLR,,0.00,WeatherDisplay:10.37,2013-11-09 18:50:00,
2013-11-09 13:55:00,53.4,28.4,30.29,West,260,5.0,12.0,38,0.00,CLR,,0.00,WeatherDisplay:10.37,2013-11-09 18:55:00,
2013-11-09 14:00:00,53.5,27.8,30.29,WNW,295,9.2,9.2,37,0.00,CLR,,0.00,WeatherDisplay:10.37,2013-11-09 19:00:00,
2013-11-09 14:05:00,53.5,27.8,30.29,WSW,246,11.5,11.5,37,0.00,CLR,,0.00,WeatherDisplay:10.37,2013-11-09 19:05:00,
2013-11-09 14:10:00,53.5,28.5,30.29,WSW,251,5.8,6.5,38,0.00,CLR,,0.00,WeatherDisplay:10.37,2013-11-09 19:10:00,
2013-11-09 14:15:00,53.6,27.3,30.29,WSW,255,6.0,12.0,36,0.00,CLR,,0.00,WeatherDisplay:10.37,2013-11-09 19:15:00,
2013-11-09 14:20:00,53.7,28.0,30.29,NW,305,11.5,11.5,37,0.00,CLR,,0.00,WeatherDisplay:10.37,2013-11-09 19:20:00,
2013-11-09 14:25:00,53.7,28.0,30.29,West,267,6.9,6.9,37,0.00,CLR,,0.00,WeatherDisplay:10.37,2013-11-09 19:25:00,
2013-11-09 14:30:00,53.7,28.0,30.29,WNW,294,8.1,8.1,37,0.00,CLR,,0.00,WeatherDisplay:10.37,2013-11-09 19:30:00,
2013-11-09 14:35:00,53.6,29.2,30.29,West,262,6.0,12.0,39,0.00,CLR,,0.00,WeatherDisplay:10.37,2013-11-09 19:35:00,
2013-11-09 14:40:00,53.5,28.5,30.29,West,260,6.0,13.0,38,0.00,CLR,,0.00,WeatherDisplay:10.37,2013-11-09 19:40:00,
2013-11-09 14:45:00,53.4,28.4,30.29,SW,234,9.2,9.2,38,0.00,CLR,,0.00,WeatherDisplay:10.37,2013-11-09 19:45:00,
2013-11-09 14:50:00,53.4,28.4,30.29,West,266,3.0,10.0,38,0.00,CLR,,0.00,WeatherDisplay:10.37,2013-11-09 19:50:00,
2013-11-09 14:55:00,53.4,29.0,30.28,WSW,256,3.0,13.0,39,0.00,CLR,,0.00,WeatherDisplay:10.37,2013-11-09 19:55:00,
2013-11-09 15:00:00,53.4,28.4,30.29,WSW,246,13.8,13.8,38,0.00,CLR,,0.00,WeatherDisplay:10.37,2013-11-09 20:00:00,
2013-11-09 15:05:00,53.4,29.0,30.28,West,263,6.0,12.0,39,0.00,CLR,,0.00,WeatherDisplay:10.37,2013-11-09 20:05:00,
2013-11-09 15:10:00,53.4,27.8,30.29,West,262,7.0,14.0,37,0.00,CLR,,0.00,WeatherDisplay:10.37,2013-11-09 20:10:00,
2013-11-09 15:15:00,53.7,28.0,30.28,WSW,246,6.0,13.0,37,0.00,CLR,,0.00,WeatherDisplay:10.37,2013-11-09 20:15:00,
2013-11-09 15:20:00,53.9,28.2,30.29,SW,233,16.0,16.0,37,0.00,CLR,,0.00,WeatherDisplay:10.37,2013-11-09 20:20:00,
2013-11-09 15:25:00,53.6,28.6,30.29,South,172,6.0,6.5,38,0.00,CLR,,0.00,WeatherDisplay:10.37,2013-11-09 20:25:00,
2013-11-09 15:30:00,53.3,28.3,30.28,WNW,283,10.4,10.4,38,0.00,CLR,,0.00,WeatherDisplay:10.37,2013-11-09 20:30:00,
2013-11-09 15:35:00,53.0,28.0,30.29,West,259,7.0,14.0,38,0.00,CLR,,0.00,WeatherDisplay:10.37,2013-11-09 20:35:00,
2013-11-09 15:40:00,52.9,28.0,30.29,WSW,240,8.1,8.1,38,0.00,CLR,,0.00,WeatherDisplay:10.37,2013-11-09 20:40:00,
2013-11-09 15:45:00,53.2,28.2,30.29,West,268,8.1,8.1,38,0.00,CLR,,0.00,WeatherDisplay:10.37,2013-11-09 20:45:00,
2013-11-09 15:50:00,53.6,27.2,30.29,WSW,256,7.0,15.0,36,0.00,CLR,,0.00,WeatherDisplay:10.37,2013-11-09 20:50:00,
2013-11-09 15:55:00,53.6,28.6,30.29,WSW,253,5.0,14.0,38,0.00,CLR,,0.00,WeatherDisplay:10.37,2013-11-09 20:55:00,
2013-11-09 16:00:00,53.2,28.9,30.29,WSW,244,5.0,12.0,39,0.00,CLR,,0.00,WeatherDisplay:10.37,2013-11-09 21:00:00,
2013-11-09 16:05:00,53.0,28.0,30.28,WSW,256,6.0,22.0,38,0.00,CLR,,0.00,WeatherDisplay:10.37,2013-11-09 21:05:00,
2013-11-09 16:10:00,53.0,28.7,30.28,SW,228,6.9,6.9,39,0.00,CLR,,0.00,WeatherDisplay:10.37,2013-11-09 21:10:00,
2013-11-09 16:15:00,53.1,28.7,30.29,WSW,251,3.0,9.0,39,0.00,CLR,,0.00,WeatherDisplay:10.37,2013-11-09 21:15:00,
2013-11-09 16:20:00,52.8,29.1,30.28,WSW,256,2.0,9.0,40,0.00,CLR,,0.00,WeatherDisplay:10.37,2013-11-09 21:20:00,
2013-11-09 16:25:00,52.4,28.1,30.28,West,265,6.0,12.0,39,0.00,CLR,,0.00,WeatherDisplay:10.37,2013-11-09 21:25:00,
2013-11-09 16:30:00,52.1,28.5,30.28,SW,232,6.0,6.0,40,0.00,CLR,,0.00,WeatherDisplay:10.37,2013-11-09 21:30:00,
2013-11-09 16:35:00,51.8,28.8,30.28,WSW,252,4.6,4.6,41,0.00,CLR,,0.00,WeatherDisplay:10.37,2013-11-09 21:35:00,
2013-11-09 16:40:00,51.6,28.0,30.29,WSW,250,4.6,4.6,40,0.00,CLR,,0.00,WeatherDisplay:10.37,2013-11-09 21:40:00,
2013-11-09 16:45:00,51.5,27.9,30.29,WSW,249,2.0,7.0,40,0.00,CLR,,0.00,WeatherDisplay:10.37,2013-11-09 21:45:00,
2013-11-09 16:50:00,51.3,27.8,30.28,SW,236,4.6,4.6,40,0.00,CLR,,0.00,WeatherDisplay:10.37,2013-11-09 21:50:00,
2013-11-09 16:55:00,51.0,28.7,30.29,WSW,257,0.0,5.0,42,0.00,CLR,,0.00,WeatherDisplay:10.37,2013-11-09 21:55:00,
2013-11-09 17:00:00,50.7,27.8,30.28,West,273,3.5,3.5,41,0.00,CLR,,0.00,WeatherDisplay:10.37,2013-11-09 22:00:00,
2013-11-09 17:05:00,50.6,27.1,30.29,West,272,6.0,6.0,40,0.00,CLR,,0.00,WeatherDisplay:10.37,2013-11-09 22:05:00,
2013-11-09 17:10:00,50.5,27.7,30.28,West,260,4.0,4.0,41,0.00,CLR,,0.00,WeatherDisplay:10.37,2013-11-09 22:10:00,
2013-11-09 17:15:00,50.3,27.5,30.28,WSW,254,2.0,7.0,41,0.00,CLR,,0.00,WeatherDisplay:10.37,2013-11-09 22:15:00,
2013-11-09 17:20:00,50.0,27.2,30.28,WSW,258,6.9,6.9,41,0.00,CLR,,0.00,WeatherDisplay:10.37,2013-11-09 22:20:00,
2013-11-09 17:25:00,49.8,27.6,30.28,WSW,251,1.0,5.0,42,0.00,CLR,,0.00,WeatherDisplay:10.37,2013-11-09 22:25:00,
2013-11-09 17:30:00,49.5,27.3,30.28,WSW,247,6.9,6.9,42,0.00,CLR,,0.00,WeatherDisplay:10.37,2013-11-09 22:30:00,
2013-11-09 17:35:00,49.4,27.2,30.28,WSW,247,3.0,7.0,42,0.00,CLR,,0.00,WeatherDisplay:10.37,2013-11-09 22:35:00,
2013-11-09 17:40:00,49.1,27.5,30.28,SW,236,4.0,4.0,43,0.00,CLR,,0.00,WeatherDisplay:10.37,2013-11-09 22:40:00,
2013-11-09 17:45:00,48.9,27.4,30.28,WSW,243,3.0,3.0,43,0.00,CLR,,0.00,WeatherDisplay:10.37,2013-11-09 22:45:00,
2013-11-09 17:50:00,48.6,27.6,30.28,West,263,1.0,5.0,44,0.00,CLR,,0.00,WeatherDisplay:10.37,2013-11-09 22:50:00,
2013-11-09 17:55:00,48.3,27.9,30.28,WSW,258,1.0,4.0,45,0.00,,,0.00,WeatherDisplay:10.37,2013-11-09 22:55:00,
2013-11-09 18:00:00,47.9,28.1,30.28,West,264,3.5,3.5,46,0.00,,,0.00,WeatherDisplay:10.37,2013-11-09 23:00:00,
2013-11-09 18:05:00,47.3,28.1,30.28,WSW,254,1.0,2.0,47,0.00,,,0.00,WeatherDisplay:10.37,2013-11-09 23:05:00,
2013-11-09 18:10:00,46.9,28.2,30.28,West,260,3.0,3.0,48,0.00,,,0.00,WeatherDisplay:10.37,2013-11-09 23:10:00,
2013-11-09 18:15:00,46.5,28.3,30.28,WSW,245,1.2,0.0,49,0.00,,,0.00,WeatherDisplay:10.37,2013-11-09 23:15:00,
2013-11-09 18:20:00,45.9,28.3,30.28,WSW,251,0.0,2.0,50,0.00,,,0.00,WeatherDisplay:10.37,2013-11-09 23:20:00,
2013-11-09 18:25:00,45.0,28.9,30.28,West,266,0.0,0.0,53,0.00,,,0.00,WeatherDisplay:10.37,2013-11-09 23:25:00,
2013-11-09 18:30:00,43.9,28.8,30.28,West,271,0.0,0.0,55,0.00,,,0.00,WeatherDisplay:10.37,2013-11-09 23:30:00,
2013-11-09 18:35:00,42.9,28.7,30.28,West,271,0.0,0.0,57,0.00,,,0.00,WeatherDisplay:10.37,2013-11-09 23:35:00,
2013-11-09 18:40:00,42.0,29.1,30.28,WNW,298,1.2,1.2,60,0.00,,,0.00,WeatherDisplay:10.37,2013-11-09 23:40:00,
2013-11-09 18:45:00,41.3,28.5,30.28,WNW,295,0.0,1.0,60,0.00,,,0.00,WeatherDisplay:10.37,2013-11-09 23:45:00,
2013-11-09 18:50:00,40.9,28.5,30.27,WNW,298,0.0,0.0,61,0.00,,,0.00,WeatherDisplay:10.37,2013-11-09 23:50:00,
2013-11-09 18:55:00,40.5,28.5,30.27,WNW,297,0.0,0.0,62,0.00,,,0.00,WeatherDisplay:10.37,2013-11-09 23:55:00,
2013-11-09 19:00:00,40.1,28.9,30.27,WNW,297,0.0,1.0,64,0.00,,,0.00,WeatherDisplay:10.37,2013-11-10 00:00:00,
2013-11-09 19:05:00,39.7,28.9,30.27,WNW,290,2.3,0.0,65,0.00,,,0.00,WeatherDisplay:10.37,2013-11-10 00:05:00,
2013-11-09 19:10:00,39.3,28.9,30.27,WNW,289,0.0,0.0,66,0.00,,,0.00,WeatherDisplay:10.37,2013-11-10 00:10:00,
2013-11-09 19:15:00,38.9,28.9,30.27,WNW,290,0.0,1.0,67,0.00,,,0.00,WeatherDisplay:10.37,2013-11-10 00:15:00,
2013-11-09 19:20:00,38.6,29.3,30.27,WNW,289,1.2,0.0,69,0.00,,,0.00,WeatherDisplay:10.37,2013-11-10 00:20:00,
2013-11-09 19:25:00,38.2,28.9,30.27,WNW,290,0.0,0.0,69,0.00,,,0.00,WeatherDisplay:10.37,2013-11-10 00:25:00,
2013-11-09 19:30:00,37.8,28.9,30.26,WNW,291,0.0,1.0,70,0.00,,,0.00,WeatherDisplay:10.37,2013-11-10 00:30:00,
2013-11-09 19:35:00,37.4,28.8,30.26,NW,308,0.0,1.0,71,0.00,,,0.00,WeatherDisplay:10.37,2013-11-10 00:35:00,
2013-11-09 19:40:00,36.8,28.6,30.27,WNW,295,0.0,0.0,72,0.00,,,0.00,WeatherDisplay:10.37,2013-11-10 00:40:00,
2013-11-09 19:45:00,36.5,28.6,30.26,WNW,294,0.0,1.0,73,0.00,,,0.00,WeatherDisplay:10.37,2013-11-10 00:45:00,
2013-11-09 19:50:00,36.0,28.2,30.26,WNW,289,0.0,0.0,73,0.00,,,0.00,WeatherDisplay:10.37,2013-11-10 00:50:00,
2013-11-09 19:55:00,35.7,28.5,30.26,WNW,289,0.0,1.0,75,0.00,,,0.00,WeatherDisplay:10.37,2013-11-10 00:55:00,
2013-11-09 20:00:00,35.3,28.5,30.27,WNW,290,0.0,0.0,76,0.00,,,0.00,WeatherDisplay:10.37,2013-11-10 01:00:00,
2013-11-09 20:05:00,35.1,28.3,30.27,WNW,290,1.2,1.2,76,0.00,,,0.00,WeatherDisplay:10.37,2013-11-10 01:05:00,
2013-11-09 20:10:00,34.8,28.3,30.27,WNW,290,0.0,0.0,77,0.00,,,0.00,WeatherDisplay:10.37,2013-11-10 01:10:00,
2013-11-09 20:15:00,34.6,28.1,30.27,WNW,290,0.0,0.1,77,0.00,,,0.00,WeatherDisplay:10.37,2013-11-10 01:15:00,
2013-11-09 20:20:00,34.4,28.2,30.27,WNW,290,0.0,0.0,78,0.00,,,0.00,WeatherDisplay:10.37,2013-11-10 01:20:00,
2013-11-09 20:25:00,34.3,28.5,30.28,WNW,289,0.0,0.0,79,0.00,,,0.00,WeatherDisplay:10.37,2013-11-10 01:25:00,
2013-11-09 20:30:00,34.3,28.5,30.28,WNW,288,0.0,1.0,79,0.00,,,0.00,WeatherDisplay:10.37,2013-11-10 01:30:00,
2013-11-09 20:35:00,34.3,28.5,30.28,WNW,285,0.0,0.0,79,0.00,,,0.00,WeatherDisplay:10.37,2013-11-10 01:35:00,
2013-11-09 20:40:00,34.2,28.3,30.28,WNW,285,0.0,0.0,79,0.00,,,0.00,WeatherDisplay:10.37,2013-11-10 01:40:00,
2013-11-09 20:45:00,33.9,28.1,30.29,WNW,285,0.0,0.0,79,0.00,,,0.00,WeatherDisplay:10.37,2013-11-10 01:45:00,
2013-11-09 20:50:00,33.6,28.1,30.29,WNW,286,0.0,0.0,80,0.00,,,0.00,WeatherDisplay:10.37,2013-11-10 01:50:00,
2013-11-09 20:55:00,33.5,28.3,30.29,WNW,285,0.0,0.0,81,0.00,,,0.00,WeatherDisplay:10.37,2013-11-10 01:55:00,
2013-11-09 21:00:00,33.3,28.4,30.29,WNW,285,0.0,0.0,82,0.00,,,0.00,WeatherDisplay:10.37,2013-11-10 02:00:00,
2013-11-09 21:05:00,33.1,28.2,30.30,WNW,285,0.0,0.0,82,0.00,,,0.00,WeatherDisplay:10.37,2013-11-10 02:05:00,
2013-11-09 21:10:00,32.8,27.9,30.30,WNW,285,0.0,0.0,82,0.00,,,0.00,WeatherDisplay:10.37,2013-11-10 02:10:00,
2013-11-09 21:15:00,32.7,28.1,30.30,WNW,285,0.0,0.0,83,0.00,,,0.00,WeatherDisplay:10.37,2013-11-10 02:15:00,
2013-11-09 21:20:00,32.7,28.1,30.30,WNW,285,0.0,0.0,83,0.00,,,0.00,WeatherDisplay:10.37,2013-11-10 02:20:00,
2013-11-09 21:25:00,32.6,28.0,30.29,WNW,285,0.0,0.0,83,0.00,,,0.00,WeatherDisplay:10.37,2013-11-10 02:25:00,
2013-11-09 21:30:00,32.3,27.7,30.29,WNW,285,0.0,0.0,83,0.00,,,0.00,WeatherDisplay:10.37,2013-11-10 02:30:00,
2013-11-09 21:35:00,32.1,27.8,30.30,WNW,285,0.0,1.0,84,0.00,,,0.00,WeatherDisplay:10.37,2013-11-10 02:35:00,
2013-11-09 21:40:00,31.9,27.9,30.30,WNW,286,1.2,0.0,85,0.00,,,0.00,WeatherDisplay:10.37,2013-11-10 02:40:00,
2013-11-09 21:45:00,31.8,27.8,30.30,WNW,285,0.0,0.0,85,0.00,,,0.00,WeatherDisplay:10.37,2013-11-10 02:45:00,
2013-11-09 21:50:00,31.7,27.7,30.30,WNW,285,0.0,0.0,85,0.00,,,0.00,WeatherDisplay:10.37,2013-11-10 02:50:00,
2013-11-09 21:55:00,31.7,28.0,30.30,WNW,285,0.0,0.0,86,0.00,,,0.00,WeatherDisplay:10.37,2013-11-10 02:55:00,
2013-11-09 22:00:00,31.8,28.1,30.30,WNW,285,0.0,0.0,86,0.00,,,0.00,WeatherDisplay:10.37,2013-11-10 03:00:00,
2013-11-09 22:05:00,32.0,28.3,30.30,WNW,285,0.0,0.0,86,0.00,,,0.00,WeatherDisplay:10.37,2013-11-10 03:05:00,
2013-11-09 22:10:00,32.2,28.5,30.30,WNW,286,0.0,0.0,86,0.00,,,0.00,WeatherDisplay:10.37,2013-11-10 03:10:00,
2013-11-09 22:15:00,32.3,28.6,30.30,WNW,285,0.0,0.0,86,0.00,,,0.00,WeatherDisplay:10.37,2013-11-10 03:15:00,
2013-11-09 22:20:00,32.4,28.7,30.30,WNW,285,0.0,0.0,86,0.00,,,0.00,WeatherDisplay:10.37,2013-11-10 03:20:00,
2013-11-09 22:25:00,32.5,28.5,30.30,WNW,286,0.0,0.0,85,0.00,,,0.00,WeatherDisplay:10.37,2013-11-10 03:25:00,
2013-11-09 22:30:00,32.5,28.8,30.30,WNW,285,0.0,0.0,86,0.00,,,0.00,WeatherDisplay:10.37,2013-11-10 03:30:00,
2013-11-09 22:35:00,32.8,29.1,30.30,WNW,286,0.0,0.0,86,0.00,,,0.00,WeatherDisplay:10.37,2013-11-10 03:35:00,
2013-11-09 22:40:00,32.9,29.2,30.30,WNW,285,0.0,0.0,86,0.00,,,0.00,WeatherDisplay:10.37,2013-11-10 03:40:00,
2013-11-09 22:45:00,32.7,28.7,30.30,WNW,285,0.0,0.0,85,0.00,,,0.00,WeatherDisplay:10.37,2013-11-10 03:45:00,
2013-11-09 22:50:00,32.5,28.8,30.30,WNW,285,0.0,0.0,86,0.00,,,0.00,WeatherDisplay:10.37,2013-11-10 03:50:00,
2013-11-09 22:55:00,32.2,28.5,30.30,WNW,285,0.0,0.0,86,0.00,,,0.00,WeatherDisplay:10.37,2013-11-10 03:55:00,
2013-11-09 23:00:00,32.1,28.7,30.30,WNW,285,0.0,0.0,87,0.00,,,0.00,WeatherDisplay:10.37,2013-11-10 04:00:00,
2013-11-09 23:05:00,32.0,28.6,30.30,WNW,285,0.0,0.0,87,0.00,,,0.00,WeatherDisplay:10.37,2013-11-10 04:05:00,
2013-11-09 23:10:00,31.8,28.4,30.30,WNW,286,0.0,0.0,87,0.00,,,0.00,WeatherDisplay:10.37,2013-11-10 04:10:00,
2013-11-09 23:15:00,31.8,28.4,30.29,WNW,285,0.0,0.0,87,0.00,,,0.00,WeatherDisplay:10.37,2013-11-10 04:15:00,
2013-11-09 23:20:00,31.7,28.3,30.30,WNW,285,0.0,0.0,87,0.00,,,0.00,WeatherDisplay:10.37,2013-11-10 04:20:00,
2013-11-09 23:25:00,31.5,28.0,30.30,WNW,285,0.0,0.0,87,0.00,,,0.00,WeatherDisplay:10.37,2013-11-10 04:25:00,
2013-11-09 23:30:00,31.3,27.9,30.30,WNW,285,0.0,0.0,87,0.00,,,0.00,WeatherDisplay:10.37,2013-11-10 04:30:00,
2013-11-09 23:35:00,31.2,28.1,30.30,WNW,285,0.0,0.0,88,0.00,,,0.00,WeatherDisplay:10.37,2013-11-10 04:35:00,
2013-11-09 23:40:00,31.2,28.1,30.30,WNW,285,0.0,0.0,88,0.00,,,0.00,WeatherDisplay:10.37,2013-11-10 04:40:00,
2013-11-09 23:45:00,31.3,28.2,30.30,WNW,285,0.0,0.0,88,0.00,,,0.00,WeatherDisplay:10.37,2013-11-10 04:45:00,
2013-11-09 23:50:00,31.3,28.2,30.30,WNW,285,0.0,0.0,88,0.00,,,0.00,WeatherDisplay:10.37,2013-11-10 04:50:00,
2013-11-09 23:55:00,31.2,28.1,30.30,WNW,286,0.0,0.0,88,0.00,,,0.00,WeatherDisplay:10.37,2013-11-10 04:55:00,